Terminal Aerodrome Forecast
Issued by NWS Cleveland, OH

Home | Current Version | Previous Version | Text Only | Print | Product List | Glossary On
Versions: 1 2 3 4 5 6 7 8 9 10 11 12 13 14 15 16 17 18 19 20 21 22 23 24 25 26 27 28 29 30 31 32 33 34 35 36 37 38 39 40 41 42 43 44
000
FTUS41 KCLE 250539
TAFCLE
TAF
KCLE 250539Z 2506/2612 VRB04KT P6SM BKN120
     FM251500 11008KT P6SM BKN030 OVC070
     FM252000 11006KT P6SM BKN015 OVC025
     FM260200 15005KT 4SM -SHRA BR BKN010 OVC025=

USA.gov is the U.S. government's official web portal to all federal, state and local government web resources and services.